createdAt,value
2023-03-19T00:01:20.775Z,6.14
2023-03-19T00:03:48.886Z,6.07
2023-03-19T00:06:16.974Z,6.00
2023-03-19T00:08:45.478Z,5.94
2023-03-19T00:11:16.746Z,5.88
2023-03-19T00:13:44.847Z,5.83
2023-03-19T00:16:15.208Z,5.78
2023-03-19T00:18:43.245Z,5.73
2023-03-19T00:21:11.265Z,5.68
2023-03-19T00:23:39.662Z,5.64
2023-03-19T00:26:08.417Z,5.60
2023-03-19T00:28:36.930Z,5.57
2023-03-19T00:31:16.816Z,5.51
2023-03-19T00:33:44.895Z,5.45
2023-03-19T00:36:15.755Z,5.40
2023-03-19T00:38:45.821Z,5.38
2023-03-19T00:41:19.072Z,5.37
2023-03-19T00:43:47.547Z,5.33
2023-03-19T00:46:15.965Z,5.30
2023-03-19T00:48:45.596Z,5.31
2023-03-19T00:51:13.458Z,5.33
2023-03-19T00:53:43.670Z,5.32
2023-03-19T00:56:17.874Z,5.29
2023-03-19T00:58:48.108Z,5.27
2023-03-19T01:01:18.264Z,5.27
2023-03-19T01:03:46.637Z,5.26
2023-03-19T01:06:14.910Z,5.24
2023-03-19T01:08:43.038Z,5.24
2023-03-19T01:11:14.870Z,5.21
2023-03-19T01:13:43.414Z,5.18
2023-03-19T01:16:11.836Z,5.13
2023-03-19T01:18:40.228Z,5.12
2023-03-19T01:21:08.742Z,5.10
2023-03-19T01:23:42.955Z,5.05
2023-03-19T01:26:11.352Z,4.98
2023-03-19T01:28:39.500Z,4.95
2023-03-19T01:31:08.732Z,4.94
2023-03-19T01:33:55.501Z,4.92
2023-03-19T01:36:41.916Z,4.87
2023-03-19T01:39:11.134Z,4.83
2023-03-19T01:41:38.751Z,4.79
2023-03-19T01:44:38.442Z,4.75
2023-03-19T01:47:40.917Z,4.70
2023-03-19T01:50:39.575Z,4.63
2023-03-19T01:53:24.269Z,4.57
2023-03-19T01:56:24.259Z,4.51
2023-03-19T01:59:06.868Z,4.46
2023-03-19T02:01:56.989Z,4.42
2023-03-19T02:04:31.301Z,4.42
2023-03-19T02:07:02.494Z,4.42
2023-03-19T02:09:34.925Z,4.42
2023-03-19T02:12:04.202Z,4.42
2023-03-19T02:14:34.955Z,4.42
2023-03-19T02:17:03.230Z,4.40
2023-03-19T02:19:52.410Z,4.37
2023-03-19T02:22:26.009Z,4.35
2023-03-19T02:25:14.985Z,4.36
2023-03-19T02:27:43.878Z,4.40
2023-03-19T02:30:43.820Z,4.42
2023-03-19T02:33:17.852Z,4.37
2023-03-19T02:35:49.967Z,4.33
2023-03-19T02:38:22.306Z,4.30
2023-03-19T02:41:00.311Z,4.28
2023-03-19T02:43:33.689Z,4.27
2023-03-19T02:46:04.287Z,4.28
2023-03-19T02:48:32.900Z,4.26
2023-03-19T02:51:04.991Z,4.23
2023-03-19T02:53:35.952Z,4.20
2023-03-19T02:56:04.704Z,4.18
2023-03-19T02:58:32.823Z,4.18
2023-03-19T03:01:01.917Z,4.14
2023-03-19T03:03:31.077Z,4.11
2023-03-19T03:05:59.476Z,4.08
2023-03-19T03:08:28.018Z,4.07
2023-03-19T03:10:56.637Z,4.06
2023-03-19T03:13:25.676Z,4.03
2023-03-19T03:15:54.076Z,3.99
2023-03-19T03:18:22.001Z,3.95
2023-03-19T03:20:53.425Z,3.93
2023-03-19T03:23:22.748Z,3.93
2023-03-19T03:25:52.905Z,3.93
2023-03-19T03:28:22.779Z,3.91
2023-03-19T03:30:51.375Z,3.90
2023-03-19T03:33:19.758Z,3.89
2023-03-19T03:35:50.628Z,3.87
2023-03-19T03:38:21.498Z,3.83
2023-03-19T03:40:55.957Z,3.80
2023-03-19T03:43:26.461Z,3.78
2023-03-19T03:45:54.809Z,3.80
2023-03-19T03:48:26.416Z,3.82
2023-03-19T03:50:54.478Z,3.83
2023-03-19T03:53:26.099Z,3.85
2023-03-19T03:55:53.953Z,3.84
2023-03-19T03:58:24.555Z,3.85
2023-03-19T04:00:54.037Z,3.85
2023-03-19T04:03:23.795Z,3.86
2023-03-19T04:05:51.484Z,3.89
2023-03-19T04:08:19.464Z,3.90
2023-03-19T04:10:47.572Z,3.91
2023-03-19T04:13:22.380Z,3.94
2023-03-19T04:15:53.554Z,3.97
2023-03-19T04:18:22.439Z,4.01
2023-03-19T04:20:55.092Z,4.03
2023-03-19T04:23:28.133Z,4.03
2023-03-19T04:26:07.065Z,4.01
2023-03-19T04:28:35.303Z,3.98
2023-03-19T04:31:08.856Z,3.96
2023-03-19T04:33:39.727Z,3.95
2023-03-19T04:36:14.055Z,3.97
2023-03-19T04:38:44.855Z,3.97
2023-03-19T04:41:15.906Z,3.97
2023-03-19T04:43:52.210Z,3.98
2023-03-19T04:46:21.113Z,3.97
2023-03-19T04:48:54.469Z,3.93
2023-03-19T04:51:25.879Z,3.88
2023-03-19T04:53:54.536Z,3.87
2023-03-19T04:56:25.189Z,3.87
2023-03-19T04:58:54.272Z,3.84
2023-03-19T05:01:22.868Z,3.84
2023-03-19T05:04:20.298Z,3.81
2023-03-19T05:06:53.606Z,3.78
2023-03-19T05:09:24.921Z,3.78
2023-03-19T05:11:53.277Z,3.78
2023-03-19T05:14:23.235Z,3.78
2023-03-19T05:17:29.964Z,3.73
2023-03-19T05:20:21.691Z,3.72
2023-03-19T05:22:56.731Z,3.73
2023-03-19T05:25:35.079Z,3.72
2023-03-19T05:28:06.953Z,3.72
2023-03-19T05:30:38.176Z,3.75
2023-03-19T05:33:12.324Z,3.76
2023-03-19T05:35:45.434Z,3.77
2023-03-19T05:38:20.198Z,3.80
2023-03-19T05:40:54.766Z,3.83
2023-03-19T05:43:32.172Z,3.88
2023-03-19T05:46:02.802Z,3.94
2023-03-19T05:48:33.111Z,3.99
2023-03-19T05:51:07.228Z,4.05
2023-03-19T05:53:39.643Z,4.11
2023-03-19T05:56:26.743Z,4.19
2023-03-19T05:59:10.204Z,4.31
2023-03-19T06:01:41.498Z,4.43
2023-03-19T06:04:10.126Z,4.49
2023-03-19T06:06:38.490Z,4.55
2023-03-19T06:09:06.668Z,4.64
2023-03-19T06:11:40.144Z,4.73
2023-03-19T06:14:28.444Z,4.87
2023-03-19T06:17:14.853Z,5.00
2023-03-19T06:19:42.952Z,5.15
2023-03-19T06:22:11.705Z,5.30
2023-03-19T06:24:40.122Z,5.44
2023-03-19T06:27:09.283Z,5.56
2023-03-19T06:29:37.412Z,5.68
2023-03-19T06:32:16.579Z,5.82
2023-03-19T06:34:45.318Z,5.97
2023-03-19T06:37:13.578Z,6.09
2023-03-19T06:39:41.771Z,6.21
2023-03-19T06:42:09.903Z,6.34
2023-03-19T06:44:37.995Z,6.48
2023-03-19T06:47:08.172Z,6.65
2023-03-19T06:49:37.061Z,6.84
2023-03-19T06:52:05.652Z,7.04
2023-03-19T06:54:34.749Z,7.21
2023-03-19T06:57:04.268Z,7.33
2023-03-19T06:59:34.692Z,7.51
2023-03-19T07:02:03.134Z,7.84
2023-03-19T07:04:31.497Z,8.21
2023-03-19T07:06:59.586Z,8.46
2023-03-19T07:09:27.773Z,8.57
2023-03-19T07:11:55.842Z,8.64
2023-03-19T07:14:24.531Z,8.67
2023-03-19T07:16:55.569Z,8.76
2023-03-19T07:19:23.559Z,8.93
2023-03-19T07:21:53.807Z,9.02
2023-03-19T07:24:22.568Z,9.07
2023-03-19T07:26:51.470Z,9.11
2023-03-19T07:29:24.775Z,9.18
2023-03-19T07:31:55.617Z,9.34
2023-03-19T07:34:24.265Z,9.47
2023-03-19T07:36:54.797Z,9.60
2023-03-19T07:39:22.973Z,9.77
2023-03-19T07:41:51.849Z,9.89
2023-03-19T07:44:26.217Z,9.99
2023-03-19T07:46:54.794Z,10.04
2023-03-19T07:49:23.878Z,10.16
2023-03-19T07:51:52.190Z,10.27
2023-03-19T07:54:23.174Z,10.39
2023-03-19T07:56:54.074Z,10.50
2023-03-19T07:59:25.602Z,10.63
2023-03-19T08:01:53.958Z,10.75
2023-03-19T08:04:22.910Z,10.80
2023-03-19T08:06:52.673Z,10.96
2023-03-19T08:09:21.004Z,11.17
2023-03-19T08:11:52.501Z,11.23
2023-03-19T08:14:22.325Z,11.23
2023-03-19T08:16:55.520Z,11.25
2023-03-19T08:19:32.216Z,11.31
2023-03-19T08:22:00.629Z,11.34
2023-03-19T08:24:29.106Z,11.40
2023-03-19T08:27:03.306Z,11.48
2023-03-19T08:29:32.277Z,11.61
2023-03-19T08:32:01.229Z,11.79
2023-03-19T08:34:29.770Z,11.86
2023-03-19T08:36:58.461Z,11.94
2023-03-19T08:39:37.294Z,12.12
2023-03-19T08:42:10.086Z,12.42
2023-03-19T08:44:39.444Z,12.60
2023-03-19T08:47:09.426Z,12.90
2023-03-19T08:49:42.035Z,13.28
2023-03-19T08:52:15.097Z,13.81
2023-03-19T08:54:46.314Z,14.35
2023-03-19T08:57:15.119Z,14.77
2023-03-19T08:59:43.821Z,15.13
2023-03-19T09:02:18.710Z,15.44
2023-03-19T09:04:54.824Z,15.69
2023-03-19T09:07:23.124Z,15.87
2023-03-19T09:09:54.631Z,16.12
2023-03-19T09:12:23.513Z,16.35
2023-03-19T09:14:52.424Z,16.49
2023-03-19T09:17:21.147Z,16.58
2023-03-19T09:19:59.757Z,16.51
2023-03-19T09:22:30.869Z,16.55
2023-03-19T09:24:59.288Z,16.73
2023-03-19T09:27:28.365Z,16.97
2023-03-19T09:29:57.752Z,17.13
2023-03-19T09:32:25.595Z,17.38
2023-03-19T09:34:54.999Z,17.74
2023-03-19T09:37:25.565Z,18.01
2023-03-19T09:39:53.732Z,18.27
2023-03-19T09:42:50.227Z,18.53
2023-03-19T09:45:23.946Z,18.40
2023-03-19T09:48:01.062Z,18.28
2023-03-19T09:50:39.066Z,18.49
2023-03-19T09:53:47.144Z,18.59
2023-03-19T09:56:19.118Z,18.89
2023-03-19T09:58:47.809Z,18.98
2023-03-19T10:01:33.365Z,18.83
2023-03-19T10:04:32.751Z,18.78
2023-03-19T10:07:21.904Z,18.77
2023-03-19T10:10:18.082Z,18.84
2023-03-19T10:12:49.534Z,18.88
2023-03-19T10:15:35.061Z,19.00
2023-03-19T10:18:32.478Z,19.23
2023-03-19T10:21:18.592Z,19.40
2023-03-19T10:24:15.982Z,19.27
2023-03-19T10:26:47.384Z,19.11
2023-03-19T10:29:20.391Z,19.10
2023-03-19T10:32:05.612Z,19.29
2023-03-19T10:34:42.996Z,19.40
2023-03-19T10:37:30.122Z,19.45
2023-03-19T10:40:00.492Z,19.48
2023-03-19T10:43:01.596Z,19.61
2023-03-19T10:45:39.311Z,19.94
2023-03-19T10:48:20.595Z,20.19
2023-03-19T10:50:54.958Z,20.52
2023-03-19T10:53:37.677Z,20.99
2023-03-19T10:56:29.901Z,21.01
2023-03-19T10:59:20.946Z,20.94
2023-03-19T11:01:49.840Z,20.57
2023-03-19T11:04:24.211Z,20.38
2023-03-19T11:07:13.978Z,20.51
2023-03-19T11:09:50.645Z,20.35
2023-03-19T11:12:37.232Z,20.29
2023-03-19T11:15:26.350Z,20.26
2023-03-19T11:18:01.130Z,20.03
2023-03-19T11:20:33.553Z,19.44
2023-03-19T11:23:11.712Z,18.97
2023-03-19T11:25:47.588Z,18.63
2023-03-19T11:28:22.501Z,18.50
2023-03-19T11:31:19.577Z,18.41
2023-03-19T11:34:18.328Z,18.15
2023-03-19T11:37:15.212Z,18.02
2023-03-19T11:40:37.226Z,17.88
2023-03-19T11:43:30.845Z,17.64
2023-03-19T11:46:20.951Z,17.34
2023-03-19T11:48:58.320Z,17.12
2023-03-19T11:52:00.360Z,17.05
2023-03-19T11:55:18.195Z,16.88
2023-03-19T11:58:26.439Z,16.83
2023-03-19T12:01:14.740Z,16.96
2023-03-19T12:04:17.112Z,16.84
2023-03-19T12:07:00.729Z,16.73
2023-03-19T12:09:51.669Z,16.82
2023-03-19T12:12:55.334Z,16.89
2023-03-19T12:15:44.931Z,16.95
2023-03-19T12:18:59.515Z,17.00
2023-03-19T12:21:50.571Z,16.92
2023-03-19T12:24:36.332Z,16.94
2023-03-19T12:27:48.941Z,17.03
2023-03-19T12:30:44.983Z,17.09
2023-03-19T12:33:36.683Z,17.14
2023-03-19T12:36:17.466Z,17.12
2023-03-19T12:39:10.676Z,17.19
2023-03-19T12:41:49.313Z,17.27
2023-03-19T12:44:33.543Z,17.19
2023-03-19T12:47:04.248Z,17.10
2023-03-19T12:49:42.355Z,17.05
2023-03-19T12:52:25.207Z,16.97
2023-03-19T12:55:15.368Z,17.03
2023-03-19T12:58:08.493Z,17.15
2023-03-19T13:01:14.233Z,17.15
2023-03-19T13:04:13.129Z,17.21
2023-03-19T13:06:53.660Z,17.28
2023-03-19T13:09:45.567Z,17.34
2023-03-19T13:12:24.743Z,17.33
2023-03-19T13:15:07.575Z,17.33
2023-03-19T13:18:32.648Z,17.33
2023-03-19T13:21:27.796Z,17.16
2023-03-19T13:24:20.784Z,17.05
2023-03-19T13:26:54.391Z,17.04
2023-03-19T13:29:28.141Z,17.09
2023-03-19T13:32:22.434Z,17.16
2023-03-19T13:35:33.353Z,17.13
2023-03-19T13:38:18.259Z,17.16
2023-03-19T13:40:54.247Z,17.21
2023-03-19T13:43:29.431Z,17.24
2023-03-19T13:46:16.842Z,17.26
2023-03-19T13:48:45.296Z,17.27
2023-03-19T13:51:21.956Z,17.28
2023-03-19T13:54:17.681Z,17.25
2023-03-19T13:57:20.592Z,17.13
2023-03-19T13:59:50.621Z,17.05
2023-03-19T14:02:21.971Z,17.12
2023-03-19T14:05:17.147Z,17.10
2023-03-19T14:07:53.578Z,16.90
2023-03-19T14:10:33.260Z,16.87
2023-03-19T14:13:19.166Z,16.90
2023-03-19T14:15:51.932Z,16.93
2023-03-19T14:18:29.408Z,16.96
2023-03-19T14:21:12.825Z,17.01
2023-03-19T14:23:54.931Z,16.97
2023-03-19T14:26:25.304Z,16.83
2023-03-19T14:29:04.572Z,16.69
2023-03-19T14:31:50.513Z,16.72
2023-03-19T14:34:37.132Z,16.78
2023-03-19T14:37:40.044Z,16.83
2023-03-19T14:40:25.904Z,16.83
2023-03-19T14:43:51.183Z,16.80
2023-03-19T14:47:36.323Z,16.74
2023-03-19T14:50:24.899Z,16.70
2023-03-19T14:53:14.308Z,16.66
2023-03-19T14:55:42.374Z,16.64
2023-03-19T14:58:12.274Z,16.64
2023-03-19T15:00:50.454Z,16.63
2023-03-19T15:03:33.869Z,16.57
2023-03-19T15:06:06.230Z,16.52
2023-03-19T15:08:39.389Z,16.50
2023-03-19T15:11:15.190Z,16.46
2023-03-19T15:14:14.631Z,16.40
2023-03-19T15:17:12.069Z,16.34
2023-03-19T15:19:41.068Z,16.30
2023-03-19T15:22:21.365Z,16.28
2023-03-19T15:24:56.405Z,16.25
2023-03-19T15:27:32.144Z,16.21
2023-03-19T15:30:14.237Z,16.15
2023-03-19T15:33:07.521Z,16.09
2023-03-19T15:35:40.327Z,16.04
2023-03-19T15:38:15.276Z,16.01
2023-03-19T15:40:46.328Z,15.99
2023-03-19T15:43:25.168Z,15.93
2023-03-19T15:45:55.612Z,15.87
2023-03-19T15:48:36.052Z,15.81
2023-03-19T15:51:07.191Z,15.76
2023-03-19T15:53:38.637Z,15.70
2023-03-19T15:56:08.038Z,15.65
2023-03-19T15:58:46.787Z,15.61
2023-03-19T16:01:23.993Z,15.57
2023-03-19T16:04:04.658Z,15.53
2023-03-19T16:06:40.617Z,15.50
2023-03-19T16:09:22.810Z,15.46
2023-03-19T16:11:57.984Z,15.40
2023-03-19T16:14:40.634Z,15.37
2023-03-19T16:17:22.485Z,15.33
2023-03-19T16:20:00.269Z,15.27
2023-03-19T16:22:33.097Z,15.21
2023-03-19T16:25:13.615Z,15.17
2023-03-19T16:27:48.921Z,15.12
2023-03-19T16:30:33.363Z,15.07
2023-03-19T16:33:06.971Z,15.01
2023-03-19T16:35:38.946Z,14.97
2023-03-19T16:38:23.293Z,14.94
2023-03-19T16:41:15.682Z,14.89
2023-03-19T16:43:46.256Z,14.82
2023-03-19T16:46:19.214Z,14.77
2023-03-19T16:48:47.821Z,14.72
2023-03-19T16:51:21.675Z,14.67
2023-03-19T16:53:50.020Z,14.61
2023-03-19T16:56:20.496Z,14.54
2023-03-19T16:58:48.902Z,14.46
2023-03-19T17:01:22.228Z,14.39
2023-03-19T17:03:53.641Z,14.30
2023-03-19T17:06:29.094Z,14.22
2023-03-19T17:08:59.456Z,14.12
2023-03-19T17:11:38.323Z,14.02
2023-03-19T17:14:22.001Z,13.92
2023-03-19T17:16:51.330Z,13.78
2023-03-19T17:19:40.979Z,13.67
2023-03-19T17:22:17.141Z,13.53
2023-03-19T17:24:45.891Z,13.41
2023-03-19T17:27:14.914Z,13.32
2023-03-19T17:29:43.753Z,13.24
2023-03-19T17:32:24.208Z,13.17
2023-03-19T17:34:57.644Z,13.07
2023-03-19T17:37:30.917Z,12.98
2023-03-19T17:39:59.465Z,12.89
2023-03-19T17:42:30.187Z,12.78
2023-03-19T17:45:03.601Z,12.65
2023-03-19T17:47:38.587Z,12.51
2023-03-19T17:50:18.008Z,12.38
2023-03-19T17:52:48.327Z,12.29
2023-03-19T17:55:27.118Z,12.20
2023-03-19T17:57:57.774Z,12.12
2023-03-19T18:00:25.929Z,12.06
2023-03-19T18:02:57.611Z,11.98
2023-03-19T18:05:26.873Z,11.89
2023-03-19T18:07:57.700Z,11.81
2023-03-19T18:10:34.127Z,11.72
2023-03-19T18:13:07.364Z,11.63
2023-03-19T18:15:42.934Z,11.54
2023-03-19T18:18:22.366Z,11.47
2023-03-19T18:20:54.121Z,11.39
2023-03-19T18:23:33.927Z,11.33
2023-03-19T18:26:09.569Z,11.23
2023-03-19T18:28:39.382Z,11.18
2023-03-19T18:31:31.599Z,11.12
2023-03-19T18:34:08.012Z,11.05
2023-03-19T18:36:39.621Z,11.01
2023-03-19T18:39:16.426Z,10.96
2023-03-19T18:41:47.368Z,10.90
2023-03-19T18:44:19.382Z,10.85
2023-03-19T18:46:48.915Z,10.79
2023-03-19T18:49:25.056Z,10.74
2023-03-19T18:52:04.815Z,10.65
2023-03-19T18:54:36.089Z,10.58
2023-03-19T18:57:10.566Z,10.53
2023-03-19T18:59:47.222Z,10.48
2023-03-19T19:02:44.723Z,10.44
2023-03-19T19:05:24.169Z,10.39
2023-03-19T19:07:59.162Z,10.36
2023-03-19T19:10:39.015Z,10.33
2023-03-19T19:13:28.803Z,10.31
2023-03-19T19:16:00.114Z,10.28
2023-03-19T19:18:34.201Z,10.27
2023-03-19T19:21:07.707Z,10.25
2023-03-19T19:23:40.453Z,10.24
2023-03-19T19:26:27.122Z,10.20
2023-03-19T19:29:00.379Z,10.14
2023-03-19T19:31:36.582Z,10.09
2023-03-19T19:34:05.268Z,10.05
2023-03-19T19:36:34.172Z,10.03
2023-03-19T19:39:08.612Z,10.01
2023-03-19T19:41:57.453Z,9.97
2023-03-19T19:44:33.844Z,9.94
2023-03-19T19:47:19.837Z,9.89
2023-03-19T19:50:05.689Z,9.85
2023-03-19T19:52:36.143Z,9.81
2023-03-19T19:55:06.688Z,9.82
2023-03-19T19:57:43.631Z,9.81
2023-03-19T20:00:32.576Z,9.82
2023-03-19T20:03:04.665Z,9.82
2023-03-19T20:05:33.799Z,9.82
2023-03-19T20:08:02.815Z,9.82
2023-03-19T20:10:31.718Z,9.81
2023-03-19T20:13:04.226Z,9.79
2023-03-19T20:15:37.088Z,9.77
2023-03-19T20:18:23.658Z,9.72
2023-03-19T20:20:56.359Z,9.66
2023-03-19T20:23:37.301Z,9.63
2023-03-19T20:26:07.342Z,9.59
2023-03-19T20:28:46.906Z,9.56
2023-03-19T20:31:30.766Z,9.53
2023-03-19T20:34:05.314Z,9.50
2023-03-19T20:36:37.841Z,9.46
2023-03-19T20:39:10.201Z,9.43
2023-03-19T20:41:47.790Z,9.40
2023-03-19T20:44:26.630Z,9.37
2023-03-19T20:50:25.100Z,9.20
2023-03-19T20:52:56.725Z,9.15
2023-03-19T20:55:37.627Z,9.11
2023-03-19T20:58:31.881Z,9.06
2023-03-19T21:01:15.042Z,9.02
2023-03-19T21:03:51.927Z,8.98
2023-03-19T21:06:28.107Z,8.95
2023-03-19T21:09:06.966Z,8.91
2023-03-19T21:11:45.382Z,8.86
2023-03-19T21:14:16.201Z,8.80
2023-03-19T21:16:51.076Z,8.74
2023-03-19T21:19:28.387Z,8.69
2023-03-19T21:22:02.156Z,8.67
2023-03-19T21:24:34.366Z,8.66
2023-03-19T21:27:04.544Z,8.64
2023-03-19T21:29:35.573Z,8.61
2023-03-19T21:32:13.600Z,8.58
2023-03-19T21:34:45.074Z,8.54
2023-03-19T21:37:19.732Z,8.49
2023-03-19T21:39:49.714Z,8.44
2023-03-19T21:42:26.092Z,8.38
2023-03-19T21:44:59.302Z,8.32
2023-03-19T21:47:30.085Z,8.27
2023-03-19T21:50:00.058Z,8.24
2023-03-19T21:52:49.862Z,8.20
2023-03-19T21:55:27.518Z,8.16
2023-03-19T21:58:08.088Z,8.13
2023-03-19T22:00:49.814Z,8.10
2023-03-19T22:03:32.377Z,8.07
2023-03-19T22:06:04.791Z,8.05
2023-03-19T22:08:38.837Z,8.01
2023-03-19T22:11:21.486Z,7.97
2023-03-19T22:13:55.600Z,7.92
2023-03-19T22:16:28.518Z,7.88
2023-03-19T22:19:23.395Z,7.83
2023-03-19T22:22:05.785Z,7.79
2023-03-19T22:24:49.585Z,7.78
2023-03-19T22:27:30.087Z,7.79
2023-03-19T22:30:47.197Z,7.77
2023-03-19T22:33:43.132Z,7.73
2023-03-19T22:36:22.236Z,7.70
2023-03-19T22:39:08.850Z,7.68
2023-03-19T22:41:47.896Z,7.63
2023-03-19T22:44:35.916Z,7.61
2023-03-19T22:47:21.740Z,7.56
2023-03-19T22:50:08.447Z,7.53
2023-03-19T22:52:40.622Z,7.53
2023-03-19T22:55:22.888Z,7.51
2023-03-19T22:58:04.091Z,7.47
2023-03-19T23:00:45.001Z,7.47
2023-03-19T23:03:35.361Z,7.47
2023-03-19T23:06:28.792Z,7.47
2023-03-19T23:09:02.521Z,7.47
2023-03-19T23:11:31.221Z,7.47
2023-03-19T23:14:06.939Z,7.44
2023-03-19T23:16:42.950Z,7.43
2023-03-19T23:19:38.960Z,7.42
2023-03-19T23:22:13.982Z,7.36
2023-03-19T23:24:48.149Z,7.34
2023-03-19T23:27:26.924Z,7.36
2023-03-19T23:29:58.494Z,7.36
2023-03-19T23:32:32.949Z,7.36
2023-03-19T23:35:16.024Z,7.37
2023-03-19T23:37:49.232Z,7.40
2023-03-19T23:40:20.576Z,7.44
2023-03-19T23:42:55.279Z,7.45
2023-03-19T23:45:41.504Z,7.45
2023-03-19T23:48:20.092Z,7.47
2023-03-19T23:50:54.623Z,7.47
2023-03-19T23:53:30.679Z,7.46
2023-03-19T23:56:04.538Z,7.44
2023-03-19T23:58:42.629Z,7.41
